sensor_id;sensor_type;location;lat;lon;timestamp;pressure;altitude;pressure_sealevel;temperature;humidity
11682;BME280;5897;42.640;23.310;2022-09-24T00:01:42;94231.06;;;9.02;73.66
11682;BME280;5897;42.640;23.310;2022-09-24T00:04:10;94232.59;;;9.03;73.56
11682;BME280;5897;42.640;23.310;2022-09-24T00:06:38;94231.00;;;9.05;73.31
11682;BME280;5897;42.640;23.310;2022-09-24T00:09:06;94235.34;;;8.99;73.42
11682;BME280;5897;42.640;23.310;2022-09-24T00:11:33;94223.56;;;8.90;73.46
11682;BME280;5897;42.640;23.310;2022-09-24T00:14:00;94235.63;;;8.82;73.64
11682;BME280;5897;42.640;23.310;2022-09-24T00:16:29;94229.56;;;8.74;73.74
11682;BME280;5897;42.640;23.310;2022-09-24T00:19:00;94231.50;;;8.74;74.48
11682;BME280;5897;42.640;23.310;2022-09-24T00:21:29;94233.88;;;8.68;74.64
11682;BME280;5897;42.640;23.310;2022-09-24T00:23:57;94225.88;;;8.61;75.53
11682;BME280;5897;42.640;23.310;2022-09-24T00:26:25;94223.91;;;8.65;75.63
11682;BME280;5897;42.640;23.310;2022-09-24T00:29:11;94182.50;;;8.29;75.18
11682;BME280;5897;42.640;23.310;2022-09-24T00:31:38;94221.28;;;8.62;75.17
11682;BME280;5897;42.640;23.310;2022-09-24T00:34:07;94232.38;;;8.64;75.05
11682;BME280;5897;42.640;23.310;2022-09-24T00:36:33;94227.28;;;8.46;75.34
11682;BME280;5897;42.640;23.310;2022-09-24T00:39:00;94227.72;;;8.41;75.71
11682;BME280;5897;42.640;23.310;2022-09-24T00:41:29;94224.28;;;8.37;76.36
11682;BME280;5897;42.640;23.310;2022-09-24T00:43:57;94227.38;;;8.39;76.03
11682;BME280;5897;42.640;23.310;2022-09-24T00:46:26;94235.94;;;8.31;76.23
11682;BME280;5897;42.640;23.310;2022-09-24T00:48:57;94227.00;;;8.37;76.32
11682;BME280;5897;42.640;23.310;2022-09-24T00:51:29;94219.19;;;8.13;76.64
11682;BME280;5897;42.640;23.310;2022-09-24T00:54:00;94221.09;;;8.16;77.18
11682;BME280;5897;42.640;23.310;2022-09-24T00:56:31;94224.56;;;8.16;77.41
11682;BME280;5897;42.640;23.310;2022-09-24T00:59:02;94216.94;;;8.11;76.77
11682;BME280;5897;42.640;23.310;2022-09-24T01:01:31;94209.59;;;7.82;78.15
11682;BME280;5897;42.640;23.310;2022-09-24T01:03:59;94204.94;;;7.49;80.09
11682;BME280;5897;42.640;23.310;2022-09-24T01:06:28;94204.63;;;7.43;81.19
11682;BME280;5897;42.640;23.310;2022-09-24T01:08:56;94162.69;;;7.12;81.61
11682;BME280;5897;42.640;23.310;2022-09-24T01:11:43;94207.63;;;7.49;82.25
11682;BME280;5897;42.640;23.310;2022-09-24T01:17:20;94204.47;;;7.57;80.38
11682;BME280;5897;42.640;23.310;2022-09-24T01:20:06;94178.56;;;7.37;80.88
11682;BME280;5897;42.640;23.310;2022-09-24T01:22:47;94149.56;;;7.21;80.18
11682;BME280;5897;42.640;23.310;2022-09-24T01:25:27;94210.84;;;7.70;80.44
11682;BME280;5897;42.640;23.310;2022-09-24T01:28:10;94213.09;;;7.75;80.13
11682;BME280;5897;42.640;23.310;2022-09-24T01:30:41;94207.72;;;7.75;79.83
11682;BME280;5897;42.640;23.310;2022-09-24T01:33:13;94203.38;;;7.88;79.08
11682;BME280;5897;42.640;23.310;2022-09-24T01:35:43;94206.19;;;7.74;78.59
11682;BME280;5897;42.640;23.310;2022-09-24T01:38:14;94207.72;;;7.75;77.92
11682;BME280;5897;42.640;23.310;2022-09-24T01:40:43;94206.84;;;7.52;79.94
11682;BME280;5897;42.640;23.310;2022-09-24T01:43:12;94203.16;;;7.35;81.33
11682;BME280;5897;42.640;23.310;2022-09-24T01:45:41;94172.28;;;7.10;80.84
11682;BME280;5897;42.640;23.310;2022-09-24T01:48:09;94209.09;;;7.16;82.03
11682;BME280;5897;42.640;23.310;2022-09-24T01:50:41;94208.06;;;7.03;83.93
11682;BME280;5897;42.640;23.310;2022-09-24T01:53:13;94211.94;;;6.95;84.61
11682;BME280;5897;42.640;23.310;2022-09-24T01:55:44;94209.50;;;7.11;83.58
11682;BME280;5897;42.640;23.310;2022-09-24T01:58:17;94212.78;;;6.85;84.76
11682;BME280;5897;42.640;23.310;2022-09-24T02:00:49;94172.69;;;6.64;84.16
11682;BME280;5897;42.640;23.310;2022-09-24T02:03:22;94213.00;;;7.05;84.51
11682;BME280;5897;42.640;23.310;2022-09-24T02:05:57;94215.97;;;7.17;83.75
11682;BME280;5897;42.640;23.310;2022-09-24T02:08:30;94219.47;;;7.14;84.03
11682;BME280;5897;42.640;23.310;2022-09-24T02:11:02;94221.75;;;7.16;82.85
11682;BME280;5897;42.640;23.310;2022-09-24T02:13:33;94208.44;;;7.02;82.96
11682;BME280;5897;42.640;23.310;2022-09-24T02:16:05;94233.63;;;7.18;82.75
11682;BME280;5897;42.640;23.310;2022-09-24T02:18:35;94230.44;;;7.30;82.31
11682;BME280;5897;42.640;23.310;2022-09-24T02:21:06;94225.91;;;7.24;82.21
11682;BME280;5897;42.640;23.310;2022-09-24T02:23:36;94214.88;;;7.11;82.23
11682;BME280;5897;42.640;23.310;2022-09-24T02:26:05;94237.75;;;7.30;82.23
11682;BME280;5897;42.640;23.310;2022-09-24T02:28:32;94247.00;;;7.29;81.63
11682;BME280;5897;42.640;23.310;2022-09-24T02:31:06;94247.75;;;7.29;81.67
11682;BME280;5897;42.640;23.310;2022-09-24T02:33:35;94247.75;;;7.29;81.29
11682;BME280;5897;42.640;23.310;2022-09-24T02:36:20;94247.41;;;7.24;81.56
11682;BME280;5897;42.640;23.310;2022-09-24T02:38:49;94250.88;;;7.21;82.07
11682;BME280;5897;42.640;23.310;2022-09-24T02:41:16;94258.56;;;7.22;81.74
11682;BME280;5897;42.640;23.310;2022-09-24T02:43:43;94256.09;;;6.94;83.47
11682;BME280;5897;42.640;23.310;2022-09-24T02:46:12;94257.53;;;7.02;83.39
11682;BME280;5897;42.640;23.310;2022-09-24T02:48:38;94254.03;;;7.12;83.21
11682;BME280;5897;42.640;23.310;2022-09-24T02:51:06;94259.44;;;7.09;83.01
11682;BME280;5897;42.640;23.310;2022-09-24T02:53:33;94258.28;;;7.06;83.02
11682;BME280;5897;42.640;23.310;2022-09-24T02:56:00;94264.69;;;7.19;82.29
11682;BME280;5897;42.640;23.310;2022-09-24T02:58:27;94264.88;;;6.98;82.61
11682;BME280;5897;42.640;23.310;2022-09-24T03:00:54;94265.72;;;6.88;83.84
11682;BME280;5897;42.640;23.310;2022-09-24T03:03:22;94267.22;;;6.93;84.55
11682;BME280;5897;42.640;23.310;2022-09-24T03:05:49;94267.19;;;6.96;84.38
11682;BME280;5897;42.640;23.310;2022-09-24T03:08:17;94260.69;;;6.97;84.39
11682;BME280;5897;42.640;23.310;2022-09-24T03:10:44;94254.22;;;6.84;84.35
11682;BME280;5897;42.640;23.310;2022-09-24T03:13:11;94250.91;;;6.66;85.82
11682;BME280;5897;42.640;23.310;2022-09-24T03:15:38;94260.44;;;6.74;86.21
11682;BME280;5897;42.640;23.310;2022-09-24T03:18:05;94253.53;;;6.73;85.83
11682;BME280;5897;42.640;23.310;2022-09-24T03:20:33;94254.22;;;6.84;86.20
11682;BME280;5897;42.640;23.310;2022-09-24T03:22:59;94256.88;;;6.91;84.94
11682;BME280;5897;42.640;23.310;2022-09-24T03:25:26;94262.66;;;6.86;84.24
11682;BME280;5897;42.640;23.310;2022-09-24T03:27:53;94263.06;;;6.85;84.64
11682;BME280;5897;42.640;23.310;2022-09-24T03:30:20;94261.53;;;6.84;85.34
11682;BME280;5897;42.640;23.310;2022-09-24T03:33:04;94239.06;;;6.57;85.68
11682;BME280;5897;42.640;23.310;2022-09-24T03:35:31;94264.09;;;6.98;84.60
11682;BME280;5897;42.640;23.310;2022-09-24T03:37:59;94274.09;;;6.97;84.39
11682;BME280;5897;42.640;23.310;2022-09-24T03:40:25;94276.38;;;6.99;84.62
11682;BME280;5897;42.640;23.310;2022-09-24T03:42:52;94283.28;;;7.03;84.25
11682;BME280;5897;42.640;23.310;2022-09-24T03:45:19;94279.03;;;7.06;83.99
11682;BME280;5897;42.640;23.310;2022-09-24T03:47:46;94277.94;;;7.00;84.18
11682;BME280;5897;42.640;23.310;2022-09-24T03:50:13;94285.00;;;6.73;85.97
11682;BME280;5897;42.640;23.310;2022-09-24T03:52:39;94276.88;;;6.83;85.35
11682;BME280;5897;42.640;23.310;2022-09-24T03:55:08;94281.78;;;6.95;85.16
11682;BME280;5897;42.640;23.310;2022-09-24T03:57:35;94279.25;;;6.74;85.39
11682;BME280;5897;42.640;23.310;2022-09-24T04:00:02;94281.53;;;6.76;84.78
11682;BME280;5897;42.640;23.310;2022-09-24T04:02:28;94290.34;;;6.76;85.38
11682;BME280;5897;42.640;23.310;2022-09-24T04:04:55;94284.94;;;6.83;84.89
11682;BME280;5897;42.640;23.310;2022-09-24T04:07:22;94289.53;;;6.79;84.95
11682;BME280;5897;42.640;23.310;2022-09-24T04:09:49;94288.81;;;6.79;85.50
11682;BME280;5897;42.640;23.310;2022-09-24T04:12:17;94274.66;;;6.68;85.58
11682;BME280;5897;42.640;23.310;2022-09-24T04:14:43;94290.41;;;6.69;85.84
11682;BME280;5897;42.640;23.310;2022-09-24T04:17:10;94280.84;;;6.58;86.22
11682;BME280;5897;42.640;23.310;2022-09-24T04:19:38;94279.25;;;6.67;86.05
11682;BME280;5897;42.640;23.310;2022-09-24T04:22:05;94221.25;;;6.19;86.23
11682;BME280;5897;42.640;23.310;2022-09-24T04:24:32;94285.75;;;6.73;85.53
11682;BME280;5897;42.640;23.310;2022-09-24T04:26:58;94294.53;;;6.81;85.39
11682;BME280;5897;42.640;23.310;2022-09-24T04:29:26;94302.19;;;6.86;84.37
11682;BME280;5897;42.640;23.310;2022-09-24T04:31:53;94300.63;;;6.88;84.16
11682;BME280;5897;42.640;23.310;2022-09-24T04:34:20;94304.47;;;6.87;84.07
11682;BME280;5897;42.640;23.310;2022-09-24T04:36:46;94306.31;;;7.01;83.90
11682;BME280;5897;42.640;23.310;2022-09-24T04:39:13;94312.41;;;7.05;82.96
11682;BME280;5897;42.640;23.310;2022-09-24T04:41:40;94314.31;;;7.08;82.49
11682;BME280;5897;42.640;23.310;2022-09-24T04:44:07;94311.63;;;7.08;82.63
11682;BME280;5897;42.640;23.310;2022-09-24T04:46:36;94301.28;;;7.03;83.04
11682;BME280;5897;42.640;23.310;2022-09-24T04:49:04;94306.97;;;7.15;83.55
11682;BME280;5897;42.640;23.310;2022-09-24T04:51:31;94308.44;;;7.23;83.72
11682;BME280;5897;42.640;23.310;2022-09-24T04:53:59;94305.88;;;7.09;84.19
11682;BME280;5897;42.640;23.310;2022-09-24T04:56:27;94303.13;;;7.16;84.96
11682;BME280;5897;42.640;23.310;2022-09-24T04:58:53;94306.78;;;7.36;84.49
11682;BME280;5897;42.640;23.310;2022-09-24T05:01:20;94303.31;;;7.39;84.39
11682;BME280;5897;42.640;23.310;2022-09-24T05:03:49;94303.25;;;7.46;83.47
11682;BME280;5897;42.640;23.310;2022-09-24T05:06:16;94308.22;;;7.51;83.30
11682;BME280;5897;42.640;23.310;2022-09-24T05:08:42;94320.75;;;7.68;82.82
11682;BME280;5897;42.640;23.310;2022-09-24T05:11:09;94312.97;;;7.77;82.07
11682;BME280;5897;42.640;23.310;2022-09-24T05:13:37;94317.19;;;7.78;82.79
11682;BME280;5897;42.640;23.310;2022-09-24T05:16:04;94314.78;;;7.91;82.22
11682;BME280;5897;42.640;23.310;2022-09-24T05:18:31;94313.88;;;8.01;81.76
11682;BME280;5897;42.640;23.310;2022-09-24T05:20:59;94317.22;;;8.12;81.33
11682;BME280;5897;42.640;23.310;2022-09-24T05:23:25;94303.81;;;8.08;81.25
11682;BME280;5897;42.640;23.310;2022-09-24T05:25:52;94318.31;;;8.18;81.61
11682;BME280;5897;42.640;23.310;2022-09-24T05:28:37;94318.94;;;8.32;81.03
11682;BME280;5897;42.640;23.310;2022-09-24T05:31:04;94305.78;;;8.41;81.14
11682;BME280;5897;42.640;23.310;2022-09-24T05:33:32;94308.00;;;8.50;81.36
11682;BME280;5897;42.640;23.310;2022-09-24T05:36:00;94321.66;;;8.66;80.63
11682;BME280;5897;42.640;23.310;2022-09-24T05:38:27;94316.09;;;8.76;80.50
11682;BME280;5897;42.640;23.310;2022-09-24T05:40:57;94318.97;;;8.92;80.23
11682;BME280;5897;42.640;23.310;2022-09-24T05:43:24;94321.91;;;9.01;79.63
11682;BME280;5897;42.640;23.310;2022-09-24T05:45:52;94328.53;;;9.23;79.25
11682;BME280;5897;42.640;23.310;2022-09-24T05:48:19;94328.44;;;9.30;78.91
11682;BME280;5897;42.640;23.310;2022-09-24T05:50:46;94341.00;;;9.40;78.26
11682;BME280;5897;42.640;23.310;2022-09-24T05:53:14;94342.44;;;9.48;77.94
11682;BME280;5897;42.640;23.310;2022-09-24T05:55:41;94340.06;;;9.50;78.07
11682;BME280;5897;42.640;23.310;2022-09-24T05:58:09;94344.88;;;9.62;77.82
11682;BME280;5897;42.640;23.310;2022-09-24T06:00:36;94344.56;;;9.83;76.63
11682;BME280;5897;42.640;23.310;2022-09-24T06:03:04;94348.94;;;9.97;75.46
11682;BME280;5897;42.640;23.310;2022-09-24T06:05:32;94334.81;;;10.12;74.17
11682;BME280;5897;42.640;23.310;2022-09-24T06:08:00;94338.44;;;10.25;74.04
11682;BME280;5897;42.640;23.310;2022-09-24T06:10:28;94340.88;;;10.39;72.94
11682;BME280;5897;42.640;23.310;2022-09-24T06:12:55;94342.25;;;10.47;72.32
11682;BME280;5897;42.640;23.310;2022-09-24T06:15:22;94337.50;;;10.55;72.47
11682;BME280;5897;42.640;23.310;2022-09-24T06:17:52;94340.19;;;10.74;71.49
11682;BME280;5897;42.640;23.310;2022-09-24T06:20:19;94345.78;;;10.83;70.53
11682;BME280;5897;42.640;23.310;2022-09-24T06:22:46;94345.66;;;10.90;69.92
11682;BME280;5897;42.640;23.310;2022-09-24T06:25:13;94342.31;;;11.02;68.41
11682;BME280;5897;42.640;23.310;2022-09-24T06:27:41;94352.47;;;11.14;68.55
11682;BME280;5897;42.640;23.310;2022-09-24T06:30:09;94351.50;;;11.24;68.50
11682;BME280;5897;42.640;23.310;2022-09-24T06:32:36;94350.59;;;11.11;67.65
11682;BME280;5897;42.640;23.310;2022-09-24T06:35:03;94349.97;;;11.39;67.48
11682;BME280;5897;42.640;23.310;2022-09-24T06:37:30;94362.28;;;11.44;66.34
11682;BME280;5897;42.640;23.310;2022-09-24T06:39:58;94354.22;;;11.56;66.59
11682;BME280;5897;42.640;23.310;2022-09-24T06:42:25;94354.53;;;11.78;66.38
11682;BME280;5897;42.640;23.310;2022-09-24T06:44:53;94352.41;;;11.85;65.16
11682;BME280;5897;42.640;23.310;2022-09-24T06:47:19;94353.69;;;11.97;63.99
11682;BME280;5897;42.640;23.310;2022-09-24T06:49:46;94356.63;;;12.18;63.23
11682;BME280;5897;42.640;23.310;2022-09-24T06:52:14;94355.81;;;12.33;62.91
11682;BME280;5897;42.640;23.310;2022-09-24T06:54:41;94359.00;;;12.44;62.24
11682;BME280;5897;42.640;23.310;2022-09-24T06:57:08;94354.94;;;12.52;61.78
11682;BME280;5897;42.640;23.310;2022-09-24T06:59:35;94361.69;;;12.60;59.72
11682;BME280;5897;42.640;23.310;2022-09-24T07:02:03;94357.50;;;12.72;59.64
11682;BME280;5897;42.640;23.310;2022-09-24T07:04:30;94361.22;;;12.78;58.38
11682;BME280;5897;42.640;23.310;2022-09-24T07:06:57;94363.53;;;12.92;59.03
11682;BME280;5897;42.640;23.310;2022-09-24T07:09:40;94365.22;;;13.02;58.57
11682;BME280;5897;42.640;23.310;2022-09-24T07:12:07;94368.50;;;13.22;57.93
11682;BME280;5897;42.640;23.310;2022-09-24T07:14:34;94366.69;;;13.31;57.49
11682;BME280;5897;42.640;23.310;2022-09-24T07:17:02;94359.41;;;13.41;56.94
11682;BME280;5897;42.640;23.310;2022-09-24T07:19:29;94355.38;;;13.33;57.72
11682;BME280;5897;42.640;23.310;2022-09-24T07:21:56;94368.97;;;13.58;55.90
11682;BME280;5897;42.640;23.310;2022-09-24T07:24:23;94359.50;;;13.50;54.79
11682;BME280;5897;42.640;23.310;2022-09-24T07:26:49;94347.47;;;13.63;55.19
11682;BME280;5897;42.640;23.310;2022-09-24T07:29:16;94351.47;;;13.84;54.79
11682;BME280;5897;42.640;23.310;2022-09-24T07:31:43;94352.00;;;14.04;54.16
11682;BME280;5897;42.640;23.310;2022-09-24T07:34:12;94356.75;;;14.12;53.29
11682;BME280;5897;42.640;23.310;2022-09-24T07:36:39;94356.13;;;13.96;54.21
11682;BME280;5897;42.640;23.310;2022-09-24T07:39:06;94357.31;;;14.20;52.64
11682;BME280;5897;42.640;23.310;2022-09-24T07:41:33;94353.25;;;14.37;52.85
11682;BME280;5897;42.640;23.310;2022-09-24T07:44:00;94348.53;;;14.50;51.76
11682;BME280;5897;42.640;23.310;2022-09-24T07:46:26;94348.91;;;14.39;53.68
11682;BME280;5897;42.640;23.310;2022-09-24T07:48:54;94348.84;;;14.52;52.53
11682;BME280;5897;42.640;23.310;2022-09-24T07:51:23;94318.63;;;14.50;52.66
11682;BME280;5897;42.640;23.310;2022-09-24T07:53:52;94350.00;;;14.85;51.15
11682;BME280;5897;42.640;23.310;2022-09-24T07:56:20;94345.59;;;15.00;51.22
11682;BME280;5897;42.640;23.310;2022-09-24T07:58:47;94348.72;;;15.20;49.62
11682;BME280;5897;42.640;23.310;2022-09-24T08:01:14;94341.13;;;15.36;49.47
11682;BME280;5897;42.640;23.310;2022-09-24T08:03:41;94345.88;;;15.45;48.44
11682;BME280;5897;42.640;23.310;2022-09-24T08:06:09;94338.44;;;15.45;48.23
11682;BME280;5897;42.640;23.310;2022-09-24T08:08:37;94342.09;;;15.51;48.26
11682;BME280;5897;42.640;23.310;2022-09-24T08:11:05;94341.44;;;15.69;48.38
11682;BME280;5897;42.640;23.310;2022-09-24T08:13:32;94334.63;;;15.73;47.20
11682;BME280;5897;42.640;23.310;2022-09-24T08:16:00;94347.38;;;15.76;47.65
11682;BME280;5897;42.640;23.310;2022-09-24T08:18:28;94345.00;;;15.96;47.06
11682;BME280;5897;42.640;23.310;2022-09-24T08:20:56;94344.00;;;16.21;46.38
11682;BME280;5897;42.640;23.310;2022-09-24T08:23:24;94350.56;;;16.41;45.09
11682;BME280;5897;42.640;23.310;2022-09-24T08:25:54;94340.59;;;16.56;44.96
11682;BME280;5897;42.640;23.310;2022-09-24T08:28:20;94341.94;;;16.88;44.28
11682;BME280;5897;42.640;23.310;2022-09-24T08:30:47;94342.84;;;16.85;44.21
11682;BME280;5897;42.640;23.310;2022-09-24T08:33:15;94319.78;;;16.95;42.92
11682;BME280;5897;42.640;23.310;2022-09-24T08:35:46;94332.47;;;17.25;41.42
11682;BME280;5897;42.640;23.310;2022-09-24T08:38:12;94334.91;;;17.32;41.88
11682;BME280;5897;42.640;23.310;2022-09-24T08:40:43;94339.13;;;17.42;41.98
11682;BME280;5897;42.640;23.310;2022-09-24T08:43:23;94330.66;;;17.40;41.35
11682;BME280;5897;42.640;23.310;2022-09-24T08:45:55;94339.31;;;17.80;41.53
11682;BME280;5897;42.640;23.310;2022-09-24T08:48:44;94334.97;;;17.97;41.15
11682;BME280;5897;42.640;23.310;2022-09-24T08:51:15;94337.63;;;18.15;40.34
11682;BME280;5897;42.640;23.310;2022-09-24T08:53:46;94332.50;;;18.08;39.95
11682;BME280;5897;42.640;23.310;2022-09-24T08:56:18;94334.53;;;18.22;39.98
11682;BME280;5897;42.640;23.310;2022-09-24T08:58:51;94317.75;;;18.38;37.30
11682;BME280;5897;42.640;23.310;2022-09-24T09:01:27;94315.72;;;18.47;39.05
11682;BME280;5897;42.640;23.310;2022-09-24T09:04:01;94297.72;;;18.55;37.83
11682;BME280;5897;42.640;23.310;2022-09-24T09:06:48;94276.28;;;18.54;37.90
11682;BME280;5897;42.640;23.310;2022-09-24T09:09:20;94313.94;;;18.97;35.78
11682;BME280;5897;42.640;23.310;2022-09-24T09:11:50;94311.13;;;19.20;35.79
11682;BME280;5897;42.640;23.310;2022-09-24T09:14:21;94310.41;;;19.49;34.10
11682;BME280;5897;42.640;23.310;2022-09-24T09:16:52;94300.25;;;19.69;34.53
11682;BME280;5897;42.640;23.310;2022-09-24T09:19:25;94309.69;;;19.83;32.92
11682;BME280;5897;42.640;23.310;2022-09-24T09:21:56;94302.38;;;19.94;33.16
11682;BME280;5897;42.640;23.310;2022-09-24T09:24:39;94282.16;;;19.92;32.54
11682;BME280;5897;42.640;23.310;2022-09-24T09:27:10;94295.78;;;20.21;33.22
11682;BME280;5897;42.640;23.310;2022-09-24T09:29:41;94305.56;;;20.22;31.86
11682;BME280;5897;42.640;23.310;2022-09-24T09:32:19;94298.56;;;20.41;31.92
11682;BME280;5897;42.640;23.310;2022-09-24T09:34:56;94292.91;;;20.50;32.59
11682;BME280;5897;42.640;23.310;2022-09-24T09:37:28;94291.69;;;20.71;32.02
11682;BME280;5897;42.640;23.310;2022-09-24T09:40:15;94286.47;;;20.93;31.94
11682;BME280;5897;42.640;23.310;2022-09-24T09:42:49;94290.31;;;20.81;32.66
11682;BME280;5897;42.640;23.310;2022-09-24T09:45:25;94280.94;;;21.13;32.15
11682;BME280;5897;42.640;23.310;2022-09-24T09:47:57;94274.19;;;21.14;31.93
11682;BME280;5897;42.640;23.310;2022-09-24T09:50:27;94273.72;;;21.46;31.15
11682;BME280;5897;42.640;23.310;2022-09-24T09:52:54;94281.13;;;21.66;30.64
11682;BME280;5897;42.640;23.310;2022-09-24T09:55:23;94279.31;;;21.88;29.06
11682;BME280;5897;42.640;23.310;2022-09-24T09:57:51;94270.34;;;21.93;28.91
11682;BME280;5897;42.640;23.310;2022-09-24T10:00:26;94260.88;;;22.00;29.02
11682;BME280;5897;42.640;23.310;2022-09-24T10:02:53;94252.41;;;22.03;29.37
11682;BME280;5897;42.640;23.310;2022-09-24T10:05:21;94235.22;;;21.77;29.69
11682;BME280;5897;42.640;23.310;2022-09-24T10:07:53;94258.13;;;22.00;30.54
11682;BME280;5897;42.640;23.310;2022-09-24T10:10:21;94248.03;;;22.28;30.36
11682;BME280;5897;42.640;23.310;2022-09-24T10:12:51;94255.13;;;22.45;30.12
11682;BME280;5897;42.640;23.310;2022-09-24T10:15:19;94249.44;;;22.60;29.45
11682;BME280;5897;42.640;23.310;2022-09-24T10:17:49;94248.25;;;22.83;28.97
11682;BME280;5897;42.640;23.310;2022-09-24T10:20:21;94249.03;;;23.00;27.51
11682;BME280;5897;42.640;23.310;2022-09-24T10:22:50;94240.75;;;22.89;28.22
11682;BME280;5897;42.640;23.310;2022-09-24T10:25:20;94235.53;;;23.07;27.57
11682;BME280;5897;42.640;23.310;2022-09-24T10:27:51;94238.09;;;23.22;26.72
11682;BME280;5897;42.640;23.310;2022-09-24T10:30:23;94238.47;;;22.82;27.55
11682;BME280;5897;42.640;23.310;2022-09-24T10:33:00;94223.22;;;22.81;28.18
11682;BME280;5897;42.640;23.310;2022-09-24T10:35:32;94229.31;;;23.18;27.98
11682;BME280;5897;42.640;23.310;2022-09-24T10:38:01;94224.06;;;23.42;27.24
11682;BME280;5897;42.640;23.310;2022-09-24T10:40:37;94227.31;;;23.73;26.94
11682;BME280;5897;42.640;23.310;2022-09-24T10:43:05;94223.53;;;23.93;26.86
11682;BME280;5897;42.640;23.310;2022-09-24T10:45:45;94227.69;;;24.32;25.96
11682;BME280;5897;42.640;23.310;2022-09-24T10:48:20;94227.88;;;24.45;24.78
11682;BME280;5897;42.640;23.310;2022-09-24T10:50:54;94222.91;;;24.38;24.19
11682;BME280;5897;42.640;23.310;2022-09-24T10:53:31;94226.13;;;24.48;25.01
11682;BME280;5897;42.640;23.310;2022-09-24T10:56:09;94209.97;;;24.74;23.84
11682;BME280;5897;42.640;23.310;2022-09-24T10:59:12;94215.16;;;24.88;24.07
11682;BME280;5897;42.640;23.310;2022-09-24T11:01:50;94217.69;;;25.27;24.34
11682;BME280;5897;42.640;23.310;2022-09-24T11:04:34;94217.31;;;25.41;23.18
11682;BME280;5897;42.640;23.310;2022-09-24T11:10:00;94215.66;;;25.62;23.56
11682;BME280;5897;42.640;23.310;2022-09-24T11:12:36;94205.69;;;25.78;22.97
11682;BME280;5897;42.640;23.310;2022-09-24T11:15:22;94210.50;;;25.77;22.49
11682;BME280;5897;42.640;23.310;2022-09-24T11:18:01;94207.75;;;25.72;22.72
11682;BME280;5897;42.640;23.310;2022-09-24T11:20:34;94195.44;;;25.73;22.08
11682;BME280;5897;42.640;23.310;2022-09-24T11:23:30;94199.56;;;26.14;22.85
11682;BME280;5897;42.640;23.310;2022-09-24T11:26:08;94179.38;;;26.19;20.66
11682;BME280;5897;42.640;23.310;2022-09-24T11:29:06;94188.03;;;26.10;21.57
11682;BME280;5897;42.640;23.310;2022-09-24T11:31:39;94183.31;;;26.48;20.84
11682;BME280;5897;42.640;23.310;2022-09-24T11:34:20;94166.88;;;26.74;20.71
11682;BME280;5897;42.640;23.310;2022-09-24T11:37:05;94170.31;;;26.61;19.34
11682;BME280;5897;42.640;23.310;2022-09-24T11:39:52;94170.38;;;26.13;20.68
11682;BME280;5897;42.640;23.310;2022-09-24T11:42:25;94165.44;;;26.06;20.78
11682;BME280;5897;42.640;23.310;2022-09-24T11:45:09;94163.25;;;26.42;21.35
11682;BME280;5897;42.640;23.310;2022-09-24T11:48:02;94142.91;;;26.58;20.46
11682;BME280;5897;42.640;23.310;2022-09-24T11:50:40;94148.63;;;26.41;19.97
11682;BME280;5897;42.640;23.310;2022-09-24T11:53:16;94141.19;;;26.55;19.74
11682;BME280;5897;42.640;23.310;2022-09-24T11:55:52;94160.03;;;26.38;20.72
11682;BME280;5897;42.640;23.310;2022-09-24T11:58:25;94163.09;;;26.34;20.33
11682;BME280;5897;42.640;23.310;2022-09-24T12:00:56;94151.88;;;26.64;20.34
11682;BME280;5897;42.640;23.310;2022-09-24T12:03:34;94151.66;;;26.99;21.19
11682;BME280;5897;42.640;23.310;2022-09-24T12:06:06;94128.91;;;27.19;20.41
11682;BME280;5897;42.640;23.310;2022-09-24T12:08:40;94161.59;;;27.26;20.59
11682;BME280;5897;42.640;23.310;2022-09-24T12:11:12;94160.25;;;27.14;20.34
11682;BME280;5897;42.640;23.310;2022-09-24T12:13:44;94161.94;;;26.67;19.80
11682;BME280;5897;42.640;23.310;2022-09-24T12:16:14;94151.47;;;26.60;20.45
11682;BME280;5897;42.640;23.310;2022-09-24T12:18:46;94150.63;;;27.15;19.85
11682;BME280;5897;42.640;23.310;2022-09-24T12:21:20;94147.16;;;27.46;19.41
11682;BME280;5897;42.640;23.310;2022-09-24T12:23:49;94151.28;;;27.39;19.61
11682;BME280;5897;42.640;23.310;2022-09-24T12:26:19;94161.81;;;27.09;19.70
11682;BME280;5897;42.640;23.310;2022-09-24T12:28:51;94153.22;;;26.94;18.72
11682;BME280;5897;42.640;23.310;2022-09-24T12:31:48;94137.34;;;26.95;19.47
11682;BME280;5897;42.640;23.310;2022-09-24T12:34:50;94154.84;;;27.21;18.78
11682;BME280;5897;42.640;23.310;2022-09-24T12:37:23;94147.41;;;26.61;19.22
11682;BME280;5897;42.640;23.310;2022-09-24T12:39:57;94150.38;;;26.81;20.10
11682;BME280;5897;42.640;23.310;2022-09-24T12:42:33;94158.53;;;27.11;19.67
11682;BME280;5897;42.640;23.310;2022-09-24T12:45:03;94154.47;;;27.30;19.72
11682;BME280;5897;42.640;23.310;2022-09-24T12:47:36;94149.00;;;27.69;19.25
11682;BME280;5897;42.640;23.310;2022-09-24T12:50:05;94146.50;;;27.53;18.35
11682;BME280;5897;42.640;23.310;2022-09-24T12:52:36;94135.59;;;27.42;19.16
11682;BME280;5897;42.640;23.310;2022-09-24T12:55:19;94143.78;;;26.84;18.69
11682;BME280;5897;42.640;23.310;2022-09-24T12:57:49;94139.00;;;26.66;18.68
11682;BME280;5897;42.640;23.310;2022-09-24T13:00:36;94145.50;;;25.60;19.27
11682;BME280;5897;42.640;23.310;2022-09-24T13:03:03;94142.03;;;25.54;20.40
11682;BME280;5897;42.640;23.310;2022-09-24T13:05:33;94133.94;;;25.56;19.74
11682;BME280;5897;42.640;23.310;2022-09-24T13:08:02;94128.66;;;25.58;21.22
11682;BME280;5897;42.640;23.310;2022-09-24T13:10:31;94132.41;;;25.60;20.76
11682;BME280;5897;42.640;23.310;2022-09-24T13:12:59;94142.50;;;25.58;19.75
11682;BME280;5897;42.640;23.310;2022-09-24T13:15:31;94139.78;;;25.76;20.73
11682;BME280;5897;42.640;23.310;2022-09-24T13:18:00;94132.63;;;26.10;20.27
11682;BME280;5897;42.640;23.310;2022-09-24T13:20:30;94134.44;;;25.84;19.71
11682;BME280;5897;42.640;23.310;2022-09-24T13:22:59;94134.38;;;25.89;20.04
11682;BME280;5897;42.640;23.310;2022-09-24T13:25:40;94124.50;;;25.99;20.33
11682;BME280;5897;42.640;23.310;2022-09-24T13:28:22;94111.31;;;25.81;20.12
11682;BME280;5897;42.640;23.310;2022-09-24T13:30:54;94125.03;;;25.68;19.79